Time;durP1;ratioP1;P1;durP2;ratioP2;P2;SDS_P1;SDS_P2;PMS_P1;PMS_P2;Temp;Humidity;BMP_temperature;BMP_pressure;BME280_temperature;BME280_humidity;BME280_pressure;Samples;Min_cycle;Max_cycle;Signal;HPM_P1;HPM_P2
2022/10/14 00:01:47;;;;;;;;;;;15.80;69.50;;;;;;5034329;28;20003;-78
2022/10/14 00:04:13;;;;;;;;;;;15.80;69.50;;;;;;5034863;28;19917;-79
2022/10/14 00:06:39;;;;;;;;;;;15.80;69.60;;;;;;5034376;28;20396;-78
2022/10/14 00:09:06;;;;;;;;;;;15.80;69.50;;;;;;5018313;28;19918;-77
2022/10/14 00:11:32;;;;;;;;;;;15.80;69.60;;;;;;5033935;28;19943;-79
2022/10/14 00:14:03;;;;;;;;;;;15.70;69.50;;;;;;5034302;28;19960;-79
2022/10/14 00:16:30;;;;;;;;;;;15.70;69.50;;;;;;5034154;28;19975;-79
2022/10/14 00:18:56;;;;;;;;;;;15.70;69.60;;;;;;5033948;28;20020;-79
2022/10/14 00:21:22;;;;;;;;;;;15.70;69.60;;;;;;5035097;28;19960;-79
2022/10/14 00:23:48;;;;;;;;;;;15.70;69.60;;;;;;5034096;28;20369;-78
2022/10/14 00:26:21;;;;;;;;;;;15.70;69.60;;;;;;5033819;28;20376;-78
2022/10/14 00:28:47;;;;;;;;;;;15.70;69.60;;;;;;5033790;28;19921;-78
2022/10/14 00:31:13;;;;;;;;;;;15.70;69.60;;;;;;5033634;28;19913;-78
2022/10/14 00:33:40;;;;;;;;;;;15.70;69.60;;;;;;5017317;28;20331;-78
2022/10/14 00:36:06;;;;;;;;;;;15.70;69.60;;;;;;5033617;28;19921;-79
2022/10/14 00:38:36;;;;;;;;;;;15.70;69.60;;;;;;5033116;28;19957;-78
2022/10/14 00:41:02;;;;;;;;;;;15.60;69.60;;;;;;5017117;28;20366;-78
2022/10/14 00:43:28;;;;;;;;;;;15.70;69.70;;;;;;5050036;28;20058;-79
2022/10/14 00:45:54;;;;;;;;;;;15.70;69.70;;;;;;5034591;28;19953;-78
2022/10/14 00:48:22;;;;;;;;;;;15.70;69.70;;;;;;5032958;28;19917;-78
2022/10/14 00:50:51;;;;;;;;;;;15.60;69.60;;;;;;5033215;28;19909;-78
2022/10/14 00:53:18;;;;;;;;;;;15.60;69.70;;;;;;5033476;28;19957;-79
2022/10/14 00:55:43;;;;;;;;;;;15.60;69.70;;;;;;5017011;28;19913;-78
2022/10/14 00:58:10;;;;;;;;;;;15.60;69.70;;;;;;5033185;28;19917;-78
2022/10/14 01:00:37;;;;;;;;;;;15.60;69.70;;;;;;5033094;28;19963;-78
2022/10/14 01:03:17;;;;;;;;;;;15.60;69.70;;;;;;5033119;28;20290;-78
2022/10/14 01:06:09;;;;;;;;;;;15.60;69.70;;;;;;5049555;28;19914;-79
2022/10/14 01:08:47;;;;;;;;;;;15.60;69.70;;;;;;5013717;28;19940;-78
2022/10/14 01:11:36;;;;;;;;;;;15.60;69.70;;;;;;5049450;28;19921;-78
2022/10/14 01:14:14;;;;;;;;;;;15.60;69.80;;;;;;5033098;28;19913;-78
2022/10/14 01:16:40;;;;;;;;;;;15.60;69.80;;;;;;5032383;28;19917;-79
2022/10/14 01:19:05;;;;;;;;;;;15.60;69.80;;;;;;5049266;28;19919;-78
2022/10/14 01:21:48;;;;;;;;;;;15.50;69.70;;;;;;5032866;28;19924;-78
2022/10/14 01:24:24;;;;;;;;;;;15.50;69.80;;;;;;5049451;28;19913;-78
2022/10/14 01:27:08;;;;;;;;;;;15.50;69.80;;;;;;5034084;28;19913;-78
2022/10/14 01:29:36;;;;;;;;;;;15.50;69.80;;;;;;5049714;28;20253;-79
2022/10/14 01:32:04;;;;;;;;;;;15.50;69.80;;;;;;5032929;28;19909;-78
2022/10/14 01:34:35;;;;;;;;;;;15.50;69.80;;;;;;5033359;28;19913;-78
2022/10/14 01:37:04;;;;;;;;;;;15.40;69.80;;;;;;5033609;28;19921;-79
2022/10/14 01:39:50;;;;;;;;;;;15.50;69.90;;;;;;5032459;28;19924;-79
2022/10/14 01:42:18;;;;;;;;;;;15.40;69.80;;;;;;5015445;28;19971;-78
2022/10/14 01:44:47;;;;;;;;;;;15.50;69.90;;;;;;5032291;28;19909;-78
2022/10/14 01:47:14;;;;;;;;;;;15.50;69.90;;;;;;5033743;28;19921;-78
2022/10/14 01:50:00;;;;;;;;;;;15.50;69.90;;;;;;5032049;28;19909;-79
2022/10/14 01:52:30;;;;;;;;;;;15.40;69.80;;;;;;5031914;28;19913;-78
2022/10/14 01:54:57;;;;;;;;;;;15.40;69.80;;;;;;5032635;28;20456;-78
2022/10/14 01:57:26;;;;;;;;;;;15.40;69.90;;;;;;5048857;28;19986;-79
2022/10/14 01:59:53;;;;;;;;;;;15.40;69.90;;;;;;5032436;28;20007;-78
2022/10/14 02:02:19;;;;;;;;;;;15.40;69.90;;;;;;5032398;28;19917;-78
2022/10/14 02:04:44;;;;;;;;;;;15.40;69.90;;;;;;5015903;28;20324;-78
2022/10/14 02:07:10;;;;;;;;;;;15.40;69.90;;;;;;5032238;28;19913;-79
2022/10/14 02:09:39;;;;;;;;;;;15.40;69.90;;;;;;5048863;28;19916;-78
2022/10/14 02:12:11;;;;;;;;;;;15.40;69.90;;;;;;5032940;28;20358;-79
2022/10/14 02:14:37;;;;;;;;;;;15.40;69.90;;;;;;5049018;28;19913;-78
2022/10/14 02:17:10;;;;;;;;;;;15.30;69.90;;;;;;5032351;28;20004;-78
2022/10/14 02:19:39;;;;;;;;;;;15.30;69.90;;;;;;5032791;28;20062;-78
2022/10/14 02:22:08;;;;;;;;;;;15.30;69.90;;;;;;5048784;28;19913;-79
2022/10/14 02:24:36;;;;;;;;;;;15.30;70.00;;;;;;5032257;28;19920;-79
2022/10/14 02:27:03;;;;;;;;;;;15.30;70.00;;;;;;5033438;28;19924;-79
2022/10/14 02:29:31;;;;;;;;;;;15.30;70.00;;;;;;5035589;28;19920;-78
2022/10/14 02:31:58;;;;;;;;;;;15.30;70.00;;;;;;5036158;28;19979;-79
2022/10/14 02:34:24;;;;;;;;;;;15.30;70.00;;;;;;5036082;28;20378;-78
2022/10/14 02:36:51;;;;;;;;;;;15.30;70.00;;;;;;5035846;28;19971;-79
2022/10/14 02:39:36;;;;;;;;;;;15.30;70.00;;;;;;5035938;28;19917;-78
2022/10/14 02:42:04;;;;;;;;;;;15.30;70.00;;;;;;5036582;28;19964;-78
2022/10/14 02:44:32;;;;;;;;;;;15.30;70.00;;;;;;5035790;28;19920;-78
2022/10/14 02:46:58;;;;;;;;;;;15.30;70.00;;;;;;5035907;28;19913;-78
2022/10/14 02:49:27;;;;;;;;;;;15.20;70.00;;;;;;5019201;28;19918;-78
2022/10/14 02:51:52;;;;;;;;;;;15.20;70.00;;;;;;5019273;28;20015;-79
2022/10/14 02:54:18;;;;;;;;;;;15.20;70.00;;;;;;5019050;28;19944;-78
2022/10/14 02:56:44;;;;;;;;;;;15.20;70.00;;;;;;5035687;28;19921;-78
2022/10/14 02:59:10;;;;;;;;;;;15.20;70.00;;;;;;5035364;28;19967;-78
2022/10/14 03:01:37;;;;;;;;;;;15.20;70.70;;;;;;5035772;28;19921;-79
2022/10/14 03:04:02;;;;;;;;;;;15.20;70.00;;;;;;5035347;28;19914;-79
2022/10/14 03:06:28;;;;;;;;;;;15.20;70.00;;;;;;5035145;28;20284;-79
2022/10/14 03:08:56;;;;;;;;;;;15.20;70.10;;;;;;5035524;28;19918;-78
2022/10/14 03:11:22;;;;;;;;;;;15.20;70.00;;;;;;5035179;28;20035;-79
2022/10/14 03:13:49;;;;;;;;;;;15.20;70.10;;;;;;5036176;28;19917;-78
2022/10/14 03:16:16;;;;;;;;;;;15.20;70.10;;;;;;5019084;28;20360;-79
2022/10/14 03:18:43;;;;;;;;;;;15.20;70.10;;;;;;5051828;28;19961;-78
2022/10/14 03:21:19;;;;;;;;;;;15.10;70.10;;;;;;5019731;28;19923;-78
2022/10/14 03:23:45;;;;;;;;;;;15.20;70.20;;;;;;5035010;28;20281;-78
2022/10/14 03:26:11;;;;;;;;;;;15.20;70.20;;;;;;5035142;28;19913;-78
2022/10/14 03:28:40;;;;;;;;;;;15.20;70.20;;;;;;5035130;28;19917;-78
2022/10/14 03:31:25;;;;;;;;;;;15.20;70.20;;;;;;5021505;28;19917;-79
2022/10/14 03:34:06;;;;;;;;;;;15.10;70.10;;;;;;5035596;28;20269;-79
2022/10/14 03:36:34;;;;;;;;;;;15.20;70.20;;;;;;5018675;28;20372;-79
2022/10/14 03:39:00;;;;;;;;;;;15.20;70.20;;;;;;5033197;28;19925;-78
2022/10/14 03:41:43;;;;;;;;;;;15.10;70.20;;;;;;5035454;28;19921;-78
2022/10/14 03:44:11;;;;;;;;;;;15.10;70.20;;;;;;5034789;28;19940;-78
2022/10/14 03:46:41;;;;;;;;;;;15.10;70.20;;;;;;5019643;28;19909;-79
2022/10/14 03:49:07;;;;;;;;;;;15.10;70.20;;;;;;5034519;28;20371;-78
2022/10/14 03:51:32;;;;;;;;;;;15.10;70.20;;;;;;5034328;28;20055;-79
2022/10/14 03:54:10;;;;;;;;;;;15.10;70.20;;;;;;5019831;28;20266;-79
2022/10/14 03:56:36;;;;;;;;;;;15.10;70.30;;;;;;5034249;28;19984;-78
2022/10/14 03:59:02;;;;;;;;;;;15.10;70.30;;;;;;5034933;28;19925;-79
2022/10/14 04:01:28;;;;;;;;;;;15.10;70.30;;;;;;5034169;28;20262;-78
2022/10/14 04:04:14;;;;;;;;;;;15.10;70.30;;;;;;5034470;28;19913;-78
2022/10/14 04:06:40;;;;;;;;;;;15.10;70.30;;;;;;5017803;28;19940;-79
2022/10/14 04:09:07;;;;;;;;;;;15.10;70.30;;;;;;5017769;28;19921;-78
2022/10/14 04:11:36;;;;;;;;;;;15.10;70.30;;;;;;5034321;28;19917;-78
2022/10/14 04:14:06;;;;;;;;;;;15.10;70.40;;;;;;5034047;28;19917;-79
2022/10/14 04:16:37;;;;;;;;;;;15.10;70.30;;;;;;5034244;28;20016;-79
2022/10/14 04:19:10;;;;;;;;;;;15.10;70.40;;;;;;5019196;28;20343;-78
2022/10/14 04:21:35;;;;;;;;;;;15.00;70.30;;;;;;5034689;28;19917;-79
2022/10/14 04:24:01;;;;;;;;;;;15.10;70.40;;;;;;5017707;28;20397;-79
2022/10/14 04:26:36;;;;;;;;;;;15.00;70.30;;;;;;5018883;28;19948;-78
2022/10/14 04:29:03;;;;;;;;;;;15.10;70.40;;;;;;5034790;28;20259;-78
2022/10/14 04:31:36;;;;;;;;;;;15.10;70.40;;;;;;5034579;28;19921;-78
2022/10/14 04:34:02;;;;;;;;;;;15.00;70.30;;;;;;5034127;28;19917;-79
2022/10/14 04:36:37;;;;;;;;;;;15.00;70.30;;;;;;5034343;28;20393;-78
2022/10/14 04:39:10;;;;;;;;;;;15.00;70.40;;;;;;5033944;28;20354;-78
2022/10/14 04:41:36;;;;;;;;;;;15.00;70.40;;;;;;5033654;28;19925;-81
2022/10/14 04:44:02;;;;;;;;;;;15.00;70.40;;;;;;5033052;28;20390;-79
2022/10/14 04:46:37;;;;;;;;;;;15.00;70.40;;;;;;5033034;28;19913;-79
2022/10/14 04:49:03;;;;;;;;;;;15.00;70.40;;;;;;5017679;28;19921;-79
2022/10/14 04:51:34;;;;;;;;;;;15.00;70.40;;;;;;5033512;28;19920;-78
2022/10/14 04:54:19;;;;;;;;;;;15.00;70.40;;;;;;5035160;28;19924;-78
2022/10/14 04:56:51;;;;;;;;;;;15.00;70.40;;;;;;5033094;28;19917;-77
2022/10/14 04:59:18;;;;;;;;;;;15.00;70.40;;;;;;5033346;28;20430;-77
2022/10/14 05:01:59;;;;;;;;;;;15.00;70.40;;;;;;5019522;28;20341;-78
2022/10/14 05:04:33;;;;;;;;;;;15.00;70.40;;;;;;5034300;28;19928;-79
2022/10/14 05:07:00;;;;;;;;;;;15.00;70.40;;;;;;5016776;28;19965;-78
2022/10/14 05:09:26;;;;;;;;;;;15.00;70.50;;;;;;5049781;28;19940;-78
2022/10/14 05:11:52;;;;;;;;;;;15.00;70.50;;;;;;5032773;28;19917;-78
2022/10/14 05:14:21;;;;;;;;;;;15.00;70.50;;;;;;5032686;28;19913;-79
2022/10/14 05:16:52;;;;;;;;;;;15.00;70.50;;;;;;5033017;28;19924;-78
2022/10/14 05:19:24;;;;;;;;;;;15.00;70.50;;;;;;5032879;28;20024;-76
2022/10/14 05:21:51;;;;;;;;;;;15.00;70.50;;;;;;5032915;28;19924;-76
2022/10/14 05:24:32;;;;;;;;;;;15.00;70.50;;;;;;5018377;28;19996;-80
2022/10/14 05:26:57;;;;;;;;;;;15.00;70.50;;;;;;5032624;28;19960;-78
2022/10/14 05:29:25;;;;;;;;;;;15.00;70.50;;;;;;5032284;28;19931;-77
2022/10/14 05:31:52;;;;;;;;;;;15.00;70.50;;;;;;5032549;28;19920;-78
2022/10/14 05:34:34;;;;;;;;;;;15.00;70.50;;;;;;5018646;28;19924;-78
2022/10/14 05:37:01;;;;;;;;;;;15.00;70.50;;;;;;5015920;28;19947;-77
2022/10/14 05:39:32;;;;;;;;;;;15.00;70.50;;;;;;5031833;28;19921;-78
2022/10/14 05:41:58;;;;;;;;;;;15.00;70.50;;;;;;5032550;28;20012;-79
2022/10/14 05:44:26;;;;;;;;;;;15.00;70.50;;;;;;5032278;28;20011;-79
2022/10/14 05:46:51;;;;;;;;;;;15.00;70.50;;;;;;5032477;28;19941;-78
2022/10/14 05:49:17;;;;;;;;;;;15.00;70.50;;;;;;5016189;28;19917;-78
2022/10/14 05:51:43;;;;;;;;;;;15.00;70.50;;;;;;5032580;28;20313;-78
2022/10/14 05:54:16;;;;;;;;;;;15.00;70.50;;;;;;5032556;28;20380;-78
2022/10/14 05:56:42;;;;;;;;;;;15.00;70.50;;;;;;5016053;28;19917;-79
2022/10/14 05:59:09;;;;;;;;;;;15.00;70.50;;;;;;5032504;28;19923;-78
2022/10/14 06:01:35;;;;;;;;;;;15.00;70.50;;;;;;5049297;28;19921;-78
2022/10/14 06:04:01;;;;;;;;;;;15.00;70.50;;;;;;5037176;28;19913;-79
2022/10/14 06:06:27;;;;;;;;;;;15.00;70.50;;;;;;5036099;28;19913;-79
2022/10/14 06:08:53;;;;;;;;;;;15.00;70.50;;;;;;5036276;28;19920;-78
2022/10/14 06:11:19;;;;;;;;;;;15.00;70.50;;;;;;5036221;28;19909;-78
2022/10/14 06:13:45;;;;;;;;;;;15.10;70.60;;;;;;5019652;28;19936;-78
2022/10/14 06:16:10;;;;;;;;;;;15.10;70.60;;;;;;5019751;28;19960;-79
2022/10/14 06:18:36;;;;;;;;;;;15.10;70.60;;;;;;5035856;28;19920;-78
2022/10/14 06:21:03;;;;;;;;;;;15.10;70.60;;;;;;5035997;28;19919;-78
2022/10/14 06:23:29;;;;;;;;;;;15.00;70.50;;;;;;5019739;28;19917;-79
2022/10/14 06:25:54;;;;;;;;;;;15.10;70.60;;;;;;5035893;28;19909;-78
2022/10/14 06:28:20;;;;;;;;;;;15.10;70.60;;;;;;5052691;28;19917;-80
2022/10/14 06:30:49;;;;;;;;;;;15.10;70.60;;;;;;5035834;28;19944;-78
2022/10/14 06:33:15;;;;;;;;;;;15.10;70.60;;;;;;5036023;28;19948;-78
2022/10/14 06:35:41;;;;;;;;;;;15.10;70.60;;;;;;5036795;28;19916;-78
2022/10/14 06:38:07;;;;;;;;;;;15.10;70.60;;;;;;5036653;28;19925;-78
2022/10/14 06:40:32;;;;;;;;;;;15.10;70.60;;;;;;5019606;28;19974;-79
2022/10/14 06:42:58;;;;;;;;;;;15.10;70.60;;;;;;5053159;28;19955;-78
2022/10/14 06:45:23;;;;;;;;;;;15.10;70.60;;;;;;5036693;28;19917;-79
2022/10/14 06:47:49;;;;;;;;;;;15.10;70.60;;;;;;5035685;28;19933;-79
2022/10/14 06:50:15;;;;;;;;;;;15.10;70.60;;;;;;5018991;28;19913;-79
2022/10/14 06:52:40;;;;;;;;;;;15.10;70.60;;;;;;5036567;28;19913;-80
2022/10/14 06:55:06;;;;;;;;;;;15.10;70.60;;;;;;5036933;28;20301;-80
2022/10/14 06:57:32;;;;;;;;;;;15.10;70.60;;;;;;5035606;28;19913;-79
2022/10/14 06:59:57;;;;;;;;;;;15.10;70.60;;;;;;5035782;28;19922;-79
2022/10/14 07:02:24;;;;;;;;;;;15.20;70.60;;;;;;5035316;28;19921;-78
2022/10/14 07:04:50;;;;;;;;;;;15.10;70.60;;;;;;5052045;28;19959;-78
2022/10/14 07:07:15;;;;;;;;;;;15.20;70.60;;;;;;5035059;28;19913;-79
2022/10/14 07:09:41;;;;;;;;;;;15.10;70.60;;;;;;5035141;28;19913;-79
2022/10/14 07:12:07;;;;;;;;;;;15.10;70.60;;;;;;5034931;28;19963;-79
2022/10/14 07:14:32;;;;;;;;;;;15.20;70.60;;;;;;5033749;28;19917;-78
2022/10/14 07:16:59;;;;;;;;;;;15.20;70.60;;;;;;5018591;28;19918;-79
2022/10/14 07:19:24;;;;;;;;;;;15.20;70.60;;;;;;5035366;28;19925;-78
2022/10/14 07:21:50;;;;;;;;;;;15.20;70.60;;;;;;5051592;28;19909;-79
2022/10/14 07:24:16;;;;;;;;;;;15.20;70.60;;;;;;5036254;28;19972;-79
2022/10/14 07:26:41;;;;;;;;;;;15.20;70.60;;;;;;5035060;28;19967;-80
2022/10/14 07:29:07;;;;;;;;;;;15.20;70.60;;;;;;5036359;28;19917;-80
2022/10/14 07:31:33;;;;;;;;;;;15.20;70.60;;;;;;5018384;28;19964;-80
2022/10/14 07:34:00;;;;;;;;;;;15.20;70.60;;;;;;5018403;28;19921;-79
2022/10/14 07:36:26;;;;;;;;;;;15.20;70.60;;;;;;5035616;28;20349;-79
2022/10/14 07:38:52;;;;;;;;;;;15.30;70.60;;;;;;5036286;28;19928;-78
2022/10/14 07:41:19;;;;;;;;;;;15.30;70.60;;;;;;5034440;28;19917;-79
2022/10/14 07:43:57;;;;;;;;;;;15.30;70.70;;;;;;5035862;28;19913;-80
2022/10/14 07:46:42;;;;;;;;;;;15.30;70.60;;;;;;5035345;28;20008;-80
2022/10/14 07:49:09;;;;;;;;;;;15.30;70.60;;;;;;5035154;28;19913;-79
2022/10/14 07:51:36;;;;;;;;;;;15.30;70.70;;;;;;5034650;28;20338;-78
2022/10/14 07:54:03;;;;;;;;;;;15.30;70.60;;;;;;5034674;28;19913;-79
2022/10/14 07:56:28;;;;;;;;;;;15.40;70.70;;;;;;5034325;28;20368;-79
2022/10/14 07:58:54;;;;;;;;;;;15.40;70.60;;;;;;5050831;28;19918;-78
2022/10/14 08:01:20;;;;;;;;;;;15.40;70.70;;;;;;5034978;28;19962;-78
2022/10/14 08:03:46;;;;;;;;;;;15.40;70.60;;;;;;5034340;28;19913;-78
2022/10/14 08:06:12;;;;;;;;;;;15.40;70.70;;;;;;5033937;28;19952;-78
2022/10/14 08:08:38;;;;;;;;;;;15.40;70.70;;;;;;5033803;28;20007;-79
2022/10/14 08:11:24;;;;;;;;;;;15.40;70.60;;;;;;5034019;28;20350;-78
2022/10/14 08:13:50;;;;;;;;;;;15.40;70.60;;;;;;5033464;28;19913;-78
2022/10/14 08:16:17;;;;;;;;;;;15.40;70.60;;;;;;5033939;28;20373;-78
2022/10/14 08:18:43;;;;;;;;;;;15.40;70.60;;;;;;5033634;28;19978;-78
2022/10/14 08:21:09;;;;;;;;;;;15.50;70.60;;;;;;5035626;28;19913;-78
2022/10/14 08:23:35;;;;;;;;;;;15.50;70.60;;;;;;5050363;28;19935;-80
2022/10/14 08:26:00;;;;;;;;;;;15.50;70.60;;;;;;5016847;28;20379;-78
2022/10/14 08:28:26;;;;;;;;;;;15.50;70.60;;;;;;5033839;28;19913;-78
2022/10/14 08:30:52;;;;;;;;;;;15.50;70.60;;;;;;5033942;28;20280;-79
2022/10/14 08:33:18;;;;;;;;;;;15.60;70.60;;;;;;5034109;28;19924;-78
2022/10/14 08:35:43;;;;;;;;;;;15.50;70.60;;;;;;5034631;28;19924;-78
2022/10/14 08:38:09;;;;;;;;;;;15.50;70.60;;;;;;5017181;28;19971;-79
2022/10/14 08:40:55;;;;;;;;;;;15.60;70.60;;;;;;5034545;28;19963;-80
2022/10/14 08:43:25;;;;;;;;;;;15.60;70.60;;;;;;5027434;28;19924;-79
2022/10/14 08:45:53;;;;;;;;;;;15.60;70.60;;;;;;5034703;28;19909;-79
2022/10/14 08:48:21;;;;;;;;;;;15.60;70.70;;;;;;5049961;28;19935;-78
2022/10/14 08:50:49;;;;;;;;;;;15.60;70.60;;;;;;5033036;28;19909;-79
2022/10/14 08:53:17;;;;;;;;;;;15.60;70.60;;;;;;5034584;28;20369;-79
2022/10/14 08:55:45;;;;;;;;;;;15.70;70.70;;;;;;5034011;28;19963;-78
2022/10/14 08:58:30;;;;;;;;;;;15.70;70.70;;;;;;5034767;28;19913;-78
2022/10/14 09:00:57;;;;;;;;;;;15.70;70.70;;;;;;5049335;28;19917;-78
2022/10/14 09:03:31;;;;;;;;;;;15.70;70.70;;;;;;5033223;28;19919;-79
2022/10/14 09:06:10;;;;;;;;;;;15.70;70.60;;;;;;5050606;28;19996;-79
2022/10/14 09:08:39;;;;;;;;;;;15.80;70.70;;;;;;5034297;28;19921;-78
2022/10/14 09:11:08;;;;;;;;;;;15.80;70.70;;;;;;5032702;28;19909;-78
2022/10/14 09:13:35;;;;;;;;;;;15.80;70.70;;;;;;5049877;28;20455;-79
2022/10/14 09:16:05;;;;;;;;;;;15.80;70.70;;;;;;5034687;28;19955;-79
2022/10/14 09:18:43;;;;;;;;;;;15.80;70.70;;;;;;5034512;28;19913;-79
2022/10/14 09:21:21;;;;;;;;;;;15.80;70.70;;;;;;5033830;28;19944;-78
2022/10/14 09:23:47;;;;;;;;;;;15.90;70.70;;;;;;5032808;28;20431;-78
2022/10/14 09:26:18;;;;;;;;;;;15.90;70.70;;;;;;5032785;28;19967;-79
2022/10/14 09:28:43;;;;;;;;;;;15.90;70.70;;;;;;5033978;28;20150;-78
2022/10/14 09:31:10;;;;;;;;;;;15.90;70.70;;;;;;5033875;28;20007;-79
2022/10/14 09:33:39;;;;;;;;;;;15.90;70.70;;;;;;5032658;28;19913;-80
2022/10/14 09:36:11;;;;;;;;;;;16.00;70.70;;;;;;5032343;28;20318;-78
2022/10/14 09:38:37;;;;;;;;;;;16.00;70.70;;;;;;5033242;28;19928;-78
2022/10/14 09:41:09;;;;;;;;;;;15.90;71.30;;;;;;5032229;28;19921;-79
2022/10/14 09:43:35;;;;;;;;;;;16.00;70.70;;;;;;5032685;28;20000;-80
2022/10/14 09:46:09;;;;;;;;;;;16.00;70.70;;;;;;5015832;28;19948;-80
2022/10/14 09:48:37;;;;;;;;;;;16.00;70.70;;;;;;5033149;28;19918;-80
2022/10/14 09:51:07;;;;;;;;;;;16.00;70.70;;;;;;5032440;28;19921;-80
2022/10/14 09:53:39;;;;;;;;;;;16.10;70.70;;;;;;5032397;28;19913;-82
2022/10/14 09:56:06;;;;;;;;;;;16.10;70.70;;;;;;5032648;28;19913;-81
2022/10/14 09:58:36;;;;;;;;;;;16.10;70.70;;;;;;5015810;28;20397;-80
2022/10/14 10:01:02;;;;;;;;;;;16.10;70.70;;;;;;5033602;28;19917;-80
2022/10/14 10:03:31;;;;;;;;;;;16.10;70.70;;;;;;5032106;28;19963;-81
2022/10/14 10:06:07;;;;;;;;;;;16.20;70.70;;;;;;5032298;28;19913;-80
2022/10/14 10:08:34;;;;;;;;;;;16.20;70.70;;;;;;5033411;28;20443;-80
2022/10/14 10:11:00;;;;;;;;;;;16.20;70.70;;;;;;5032271;28;19916;-79
2022/10/14 10:13:45;;;;;;;;;;;16.20;70.70;;;;;;5048718;28;20425;-80
2022/10/14 10:16:21;;;;;;;;;;;16.20;70.70;;;;;;5032228;28;19913;-80
2022/10/14 10:18:47;;;;;;;;;;;16.30;70.70;;;;;;5032451;28;19913;-80
2022/10/14 10:21:19;;;;;;;;;;;16.30;70.70;;;;;;5032196;28;19913;-81
2022/10/14 10:23:53;;;;;;;;;;;16.30;70.70;;;;;;5032307;28;19913;-80
2022/10/14 10:26:24;;;;;;;;;;;16.30;70.70;;;;;;5031853;28;19940;-81
2022/10/14 10:28:50;;;;;;;;;;;16.30;70.70;;;;;;5048557;28;19917;-79
2022/10/14 10:31:34;;;;;;;;;;;16.30;70.70;;;;;;5032036;28;19914;-80
2022/10/14 10:34:36;;;;;;;;;;;16.40;70.70;;;;;;5048799;28;20368;-79
2022/10/14 10:37:04;;;;;;;;;;;16.40;70.70;;;;;;4975160;28;20025;-80
2022/10/14 10:39:56;;;;;;;;;;;16.40;70.70;;;;;;5024634;28;20055;-80
2022/10/14 10:42:28;;;;;;;;;;;16.40;70.70;;;;;;5047690;28;20127;-79
2022/10/14 10:45:06;;;;;;;;;;;16.40;70.70;;;;;;5032162;28;19914;-80
2022/10/14 10:47:46;;;;;;;;;;;16.50;70.70;;;;;;5032571;28;20019;-80
2022/10/14 10:50:11;;;;;;;;;;;16.50;70.80;;;;;;5035654;28;20011;-80
2022/10/14 10:52:52;;;;;;;;;;;16.50;70.70;;;;;;5036559;28;19948;-80
2022/10/14 10:55:24;;;;;;;;;;;16.50;70.70;;;;;;5036804;28;19914;-79
2022/10/14 10:57:52;;;;;;;;;;;16.60;70.80;;;;;;5052170;28;19999;-79
2022/10/14 11:00:21;;;;;;;;;;;16.60;70.80;;;;;;5036307;28;20284;-79
2022/10/14 11:02:47;;;;;;;;;;;16.60;70.80;;;;;;5036375;28;19922;-80
2022/10/14 11:05:20;;;;;;;;;;;16.70;70.80;;;;;;5036123;28;20274;-80
2022/10/14 11:14:12;;;;;;;;;;;16.70;70.80;;;;;;5036223;28;20055;-80
2022/10/14 11:16:47;;;;;;;;;;;16.70;70.70;;;;;;5051749;28;19928;-79
2022/10/14 11:19:13;;;;;;;;;;;16.80;70.80;;;;;;5036611;28;20361;-80
2022/10/14 11:21:38;;;;;;;;;;;16.80;70.80;;;;;;5035086;28;19921;-79
2022/10/14 11:24:04;;;;;;;;;;;16.80;70.70;;;;;;5035847;28;19920;-79
2022/10/14 11:26:46;;;;;;;;;;;16.80;70.70;;;;;;5035181;28;19963;-78
2022/10/14 11:29:15;;;;;;;;;;;16.80;70.70;;;;;;5035745;28;19913;-79
2022/10/14 11:31:50;;;;;;;;;;;16.90;70.70;;;;;;5034793;28;20007;-79
2022/10/14 11:34:30;;;;;;;;;;;16.90;70.70;;;;;;5051498;28;19944;-79
2022/10/14 11:37:15;;;;;;;;;;;16.90;70.70;;;;;;5034843;28;20361;-78
2022/10/14 11:39:46;;;;;;;;;;;16.90;70.70;;;;;;5034736;28;19916;-79
2022/10/14 11:42:25;;;;;;;;;;;16.90;70.70;;;;;;5034828;28;19991;-79
2022/10/14 11:45:12;;;;;;;;;;;16.90;70.60;;;;;;5034807;28;19944;-80
2022/10/14 11:47:43;;;;;;;;;;;17.00;70.70;;;;;;5035157;28;19913;-79
2022/10/14 11:50:15;;;;;;;;;;;17.00;70.70;;;;;;5034530;28;19909;-80
2022/10/14 11:52:49;;;;;;;;;;;17.10;70.70;;;;;;5034448;28;19976;-79
2022/10/14 11:55:18;;;;;;;;;;;17.00;70.60;;;;;;5035360;28;19913;-79
2022/10/14 11:57:52;;;;;;;;;;;17.10;70.60;;;;;;5034530;28;19928;-80
2022/10/14 12:00:20;;;;;;;;;;;17.10;70.60;;;;;;5034754;28;20361;-79
2022/10/14 12:02:56;;;;;;;;;;;17.10;70.60;;;;;;5034577;28;19913;-80
2022/10/14 12:05:37;;;;;;;;;;;17.10;70.60;;;;;;5034026;28;19920;-79
2022/10/14 12:08:25;;;;;;;;;;;17.10;70.60;;;;;;5033869;28;19913;-80
2022/10/14 12:10:50;;;;;;;;;;;17.20;70.60;;;;;;5034177;28;20381;-79
2022/10/14 12:13:18;;;;;;;;;;;17.20;70.60;;;;;;5050808;28;19910;-79
2022/10/14 12:15:53;;;;;;;;;;;17.20;70.60;;;;;;5034106;28;19921;-79
2022/10/14 12:18:18;;;;;;;;;;;17.20;70.60;;;;;;5034266;28;20270;-80
2022/10/14 12:21:06;;;;;;;;;;;17.30;70.60;;;;;;5033914;28;19957;-80
2022/10/14 12:23:32;;;;;;;;;;;17.20;70.60;;;;;;5034281;28;19963;-79
2022/10/14 12:26:09;;;;;;;;;;;17.20;70.60;;;;;;5051213;28;19909;-79
2022/10/14 12:28:36;;;;;;;;;;;17.30;70.60;;;;;;5034135;28;20284;-79
2022/10/14 12:31:40;;;;;;;;;;;17.30;70.60;;;;;;5033746;28;19956;-80
2022/10/14 12:34:16;;;;;;;;;;;17.30;70.60;;;;;;4993535;28;19913;-79
2022/10/14 12:36:43;;;;;;;;;;;17.30;70.60;;;;;;4960677;28;19917;-80
2022/10/14 12:39:18;;;;;;;;;;;17.30;70.60;;;;;;4995171;28;20344;-80
2022/10/14 12:41:54;;;;;;;;;;;17.40;70.60;;;;;;5015906;28;20432;-78
2022/10/14 12:44:21;;;;;;;;;;;17.40;70.60;;;;;;5013806;28;19918;-79
2022/10/14 12:46:48;;;;;;;;;;;17.40;71.30;;;;;;5013535;28;19910;-79
2022/10/14 12:49:34;;;;;;;;;;;17.40;70.60;;;;;;5030283;28;19979;-80
2022/10/14 12:52:06;;;;;;;;;;;17.40;70.60;;;;;;5013489;28;20004;-80
2022/10/14 12:54:33;;;;;;;;;;;17.50;70.60;;;;;;5013709;28;19968;-80
2022/10/14 12:57:01;;;;;;;;;;;17.50;70.60;;;;;;5013482;28;19964;-80
2022/10/14 12:59:38;;;;;;;;;;;17.50;70.60;;;;;;5013485;28;19918;-80
2022/10/14 13:02:22;;;;;;;;;;;17.50;70.60;;;;;;5012870;28;19917;-79
2022/10/14 13:04:50;;;;;;;;;;;17.50;70.60;;;;;;5014521;28;19913;-79
2022/10/14 13:07:16;;;;;;;;;;;17.60;70.60;;;;;;5014386;28;20417;-80
2022/10/14 13:09:45;;;;;;;;;;;17.50;70.60;;;;;;5030472;28;19949;-80
2022/10/14 13:12:30;;;;;;;;;;;17.60;70.60;;;;;;5013237;28;19919;-80
2022/10/14 13:14:59;;;;;;;;;;;17.60;70.60;;;;;;5014397;28;19913;-80
2022/10/14 13:17:29;;;;;;;;;;;17.60;70.60;;;;;;5029751;28;19909;-81
2022/10/14 13:19:55;;;;;;;;;;;17.60;70.60;;;;;;5013386;28;19967;-80
2022/10/14 13:22:27;;;;;;;;;;;17.60;71.20;;;;;;5013247;28;19917;-79
2022/10/14 13:25:01;;;;;;;;;;;17.70;70.60;;;;;;5014774;28;20047;-80
2022/10/14 13:27:32;;;;;;;;;;;17.70;70.60;;;;;;5013348;28;19940;-80
2022/10/14 13:29:59;;;;;;;;;;;17.60;70.50;;;;;;5012741;28;19913;-79
2022/10/14 13:32:27;;;;;;;;;;;17.70;70.50;;;;;;5014526;28;19916;-80
2022/10/14 13:34:53;;;;;;;;;;;17.70;70.50;;;;;;5030042;28;19913;-80
2022/10/14 13:37:31;;;;;;;;;;;17.70;70.50;;;;;;5034369;28;20294;-80
2022/10/14 13:39:58;;;;;;;;;;;17.70;70.50;;;;;;5033508;28;20004;-80
2022/10/14 13:42:30;;;;;;;;;;;17.70;70.50;;;;;;5033367;28;19917;-81
2022/10/14 13:45:02;;;;;;;;;;;17.80;70.50;;;;;;5033544;28;19913;-80
2022/10/14 13:47:27;;;;;;;;;;;17.80;70.50;;;;;;5049499;28;19913;-80
2022/10/14 13:49:53;;;;;;;;;;;17.80;70.50;;;;;;5032573;28;19966;-80
2022/10/14 13:52:24;;;;;;;;;;;17.80;70.50;;;;;;5016807;28;19963;-80
2022/10/14 13:55:08;;;;;;;;;;;17.80;70.50;;;;;;5033200;28;20396;-80
2022/10/14 13:57:34;;;;;;;;;;;17.80;70.40;;;;;;5049441;28;19948;-80
2022/10/14 13:59:59;;;;;;;;;;;17.80;70.40;;;;;;5032226;28;19952;-81
2022/10/14 14:02:26;;;;;;;;;;;17.80;70.40;;;;;;5032455;28;19928;-80
2022/10/14 14:04:54;;;;;;;;;;;17.80;70.40;;;;;;5032668;28;19963;-80
2022/10/14 14:07:21;;;;;;;;;;;17.90;70.50;;;;;;5032482;28;19910;-79
2022/10/14 14:09:52;;;;;;;;;;;17.90;70.40;;;;;;5034142;28;19913;-80
2022/10/14 14:12:19;;;;;;;;;;;17.90;70.40;;;;;;5032573;28;20258;-80
2022/10/14 14:14:45;;;;;;;;;;;17.90;70.40;;;;;;5032537;28;20313;-80
2022/10/14 14:17:18;;;;;;;;;;;17.90;70.40;;;;;;5032508;28;19970;-80
2022/10/14 14:19:49;;;;;;;;;;;17.90;70.40;;;;;;5032390;28;19917;-80
2022/10/14 14:22:19;;;;;;;;;;;17.90;70.30;;;;;;5033224;28;19922;-80
2022/10/14 14:24:46;;;;;;;;;;;17.90;70.30;;;;;;5035857;28;19920;-80
2022/10/14 14:27:13;;;;;;;;;;;17.90;70.30;;;;;;5037758;28;19916;-80
2022/10/14 14:29:40;;;;;;;;;;;18.00;70.40;;;;;;5036329;28;20404;-80
2022/10/14 14:32:11;;;;;;;;;;;18.00;71.00;;;;;;5052589;28;19909;-80
2022/10/14 14:34:38;;;;;;;;;;;17.90;70.30;;;;;;5036246;28;20358;-80
2022/10/14 14:37:05;;;;;;;;;;;18.00;70.30;;;;;;5052672;28;19921;-79
2022/10/14 14:39:32;;;;;;;;;;;18.00;70.30;;;;;;5036978;28;20365;-79